createdAt,value
2022-12-06T00:00:53.695Z,3.13
2022-12-06T00:03:26.825Z,3.12
2022-12-06T00:06:06.534Z,3.08
2022-12-06T00:08:42.684Z,3.04
2022-12-06T00:11:17.528Z,3.07
2022-12-06T00:13:53.746Z,3.07
2022-12-06T00:16:26.959Z,3.07
2022-12-06T00:19:00.925Z,3.07
2022-12-06T00:21:38.045Z,3.00
2022-12-06T00:24:19.238Z,2.99
2022-12-06T00:26:52.715Z,3.02
2022-12-06T00:29:26.547Z,3.04
2022-12-06T00:31:57.150Z,3.05
2022-12-06T00:34:29.963Z,3.03
2022-12-06T00:37:02.929Z,3.07
2022-12-06T00:39:35.894Z,3.11
2022-12-06T00:42:08.645Z,3.13
2022-12-06T00:44:41.847Z,3.14
2022-12-06T00:47:15.928Z,3.15
2022-12-06T00:49:48.818Z,3.15
2022-12-06T00:52:21.489Z,3.18
2022-12-06T00:54:54.577Z,3.17
2022-12-06T00:57:27.242Z,3.17
2022-12-06T01:00:00.160Z,3.19
2022-12-06T01:02:35.467Z,3.19
2022-12-06T01:05:14.867Z,3.19
2022-12-06T01:07:47.420Z,3.20
2022-12-06T01:10:20.461Z,3.21
2022-12-06T01:12:53.148Z,3.15
2022-12-06T01:15:26.809Z,3.12
2022-12-06T01:17:59.390Z,3.14
2022-12-06T01:20:32.330Z,3.15
2022-12-06T01:23:05.081Z,3.14
2022-12-06T01:25:38.165Z,3.14
2022-12-06T01:28:30.620Z,3.08
2022-12-06T01:31:07.932Z,3.07
2022-12-06T01:33:42.501Z,3.03
2022-12-06T01:36:21.848Z,3.05
2022-12-06T01:38:55.740Z,3.04
2022-12-06T01:41:29.210Z,3.02
2022-12-06T01:44:05.553Z,3.02
2022-12-06T01:46:41.770Z,2.98
2022-12-06T01:49:21.462Z,2.96
2022-12-06T01:51:58.139Z,2.90
2022-12-06T01:54:34.091Z,2.89
2022-12-06T01:57:11.021Z,2.88
2022-12-06T01:59:44.723Z,2.89
2022-12-06T05:33:07.721Z,2.18
2022-12-06T05:35:42.179Z,2.16
2022-12-06T05:38:14.439Z,2.19
2022-12-06T05:40:48.663Z,2.24
2022-12-06T05:43:21.025Z,2.24
2022-12-06T05:45:55.637Z,2.26
2022-12-06T05:48:29.412Z,2.27
2022-12-06T05:51:01.471Z,2.30
2022-12-06T05:53:33.813Z,2.29
2022-12-06T05:56:11.551Z,2.22
2022-12-06T05:58:43.629Z,2.21
2022-12-06T06:01:15.629Z,2.24
2022-12-06T06:03:48.156Z,2.26
2022-12-06T06:06:21.531Z,2.29
2022-12-06T06:08:53.901Z,2.30
2022-12-06T06:11:26.012Z,2.30
2022-12-06T06:13:58.471Z,2.30
2022-12-06T06:16:33.130Z,2.28
2022-12-06T06:19:05.549Z,2.26
2022-12-06T06:21:38.988Z,2.25
2022-12-06T06:24:11.800Z,2.26
2022-12-06T06:26:44.091Z,2.26
2022-12-06T06:29:16.599Z,2.27
2022-12-06T06:31:48.926Z,2.28
2022-12-06T06:34:21.430Z,2.29
2022-12-06T06:36:53.809Z,2.29
2022-12-06T06:39:26.075Z,2.31
2022-12-06T06:41:58.242Z,2.34
2022-12-06T06:44:30.512Z,2.36
2022-12-06T06:47:03.011Z,2.36
2022-12-06T06:49:36.671Z,2.32
2022-12-06T06:52:08.952Z,2.33
2022-12-06T06:54:41.212Z,2.31
2022-12-06T06:57:17.643Z,2.34
2022-12-06T06:59:50.354Z,2.35
2022-12-06T07:02:22.583Z,2.36
2022-12-06T07:04:54.783Z,2.37
2022-12-06T07:07:26.742Z,2.37
2022-12-06T07:09:59.137Z,2.34
2022-12-06T07:12:31.831Z,2.37
2022-12-06T07:15:04.156Z,2.36
2022-12-06T07:17:36.699Z,2.36
2022-12-06T07:20:11.231Z,2.34
2022-12-06T07:22:46.784Z,2.37
2022-12-06T07:25:19.230Z,2.36
2022-12-06T07:27:52.611Z,2.34
2022-12-06T07:30:28.255Z,2.36
2022-12-06T07:33:00.713Z,2.32
2022-12-06T07:36:03.433Z,2.31
2022-12-06T07:38:25.022Z,2.32
2022-12-06T07:41:04.877Z,2.36
2022-12-06T07:43:54.483Z,2.40
2022-12-06T07:46:26.541Z,2.44
2022-12-06T07:48:59.901Z,2.46
2022-12-06T07:51:35.100Z,2.49
2022-12-06T07:54:07.978Z,2.51
2022-12-06T07:56:40.112Z,2.48
2022-12-06T07:59:12.640Z,2.44
2022-12-06T08:01:45.150Z,2.40
2022-12-06T08:04:19.090Z,2.39
2022-12-06T08:06:51.216Z,2.43
2022-12-06T08:09:23.544Z,2.47
2022-12-06T08:11:55.859Z,2.51
2022-12-06T08:14:28.042Z,2.53
2022-12-06T08:17:00.126Z,2.55
2022-12-06T08:19:35.564Z,2.57
2022-12-06T08:22:07.858Z,2.58
2022-12-06T08:24:40.604Z,2.57
2022-12-06T08:27:14.465Z,2.59
2022-12-06T08:29:46.694Z,2.62
2022-12-06T08:32:19.662Z,2.63
2022-12-06T08:34:53.143Z,2.64
2022-12-06T08:37:25.153Z,2.66
2022-12-06T08:39:57.460Z,2.67
2022-12-06T08:42:29.732Z,2.71
2022-12-06T08:45:02.073Z,2.72
2022-12-06T08:47:35.692Z,2.70
2022-12-06T08:50:09.618Z,2.68
2022-12-06T08:52:41.624Z,2.61
2022-12-06T08:55:13.932Z,2.51
2022-12-06T08:57:46.192Z,2.45
2022-12-06T09:00:20.041Z,2.50
2022-12-06T09:02:50.325Z,2.55
2022-12-06T09:05:24.912Z,2.50
2022-12-06T09:07:57.816Z,2.49
2022-12-06T09:10:30.645Z,2.46
2022-12-06T09:13:03.191Z,2.49
2022-12-06T09:15:35.659Z,2.52
2022-12-06T09:18:07.802Z,2.52
2022-12-06T09:20:42.864Z,2.54
2022-12-06T09:23:15.432Z,2.57
2022-12-06T09:25:47.583Z,2.56
2022-12-06T09:28:20.771Z,2.48
2022-12-06T09:30:52.912Z,2.47
2022-12-06T09:33:25.763Z,2.39
2022-12-06T09:35:58.732Z,2.38
2022-12-06T09:38:32.890Z,2.44
2022-12-06T09:41:20.253Z,2.49
2022-12-06T09:44:10.732Z,2.47
2022-12-06T09:46:58.230Z,2.39
2022-12-06T09:49:38.354Z,2.36
2022-12-06T09:52:26.449Z,2.33
2022-12-06T09:55:14.631Z,2.30
2022-12-06T09:57:54.503Z,2.36
2022-12-06T10:00:29.092Z,2.40
2022-12-06T10:03:20.466Z,2.41
2022-12-06T10:06:03.184Z,2.46
2022-12-06T10:09:03.039Z,2.54
2022-12-06T10:11:49.112Z,2.58
2022-12-06T10:14:32.653Z,2.64
2022-12-06T10:17:13.552Z,2.67
2022-12-06T10:20:04.928Z,2.69
2022-12-06T10:22:52.551Z,2.74
2022-12-06T10:25:32.514Z,2.79
2022-12-06T10:28:14.292Z,2.84
2022-12-06T10:30:52.656Z,2.87
2022-12-06T10:33:39.475Z,2.90
2022-12-06T10:36:14.584Z,2.94
2022-12-06T10:38:52.102Z,3.00
2022-12-06T10:41:29.759Z,3.02
2022-12-06T10:44:09.193Z,3.03
2022-12-06T10:47:06.892Z,3.05
2022-12-06T10:49:48.394Z,3.06
2022-12-06T10:52:37.984Z,3.07
2022-12-06T10:55:23.546Z,3.09
2022-12-06T10:58:11.755Z,3.11
2022-12-06T11:00:54.127Z,3.14
2022-12-06T11:03:31.692Z,3.17
2022-12-06T11:06:13.432Z,3.20
2022-12-06T11:08:49.053Z,3.21
2022-12-06T11:11:26.012Z,3.21
2022-12-06T11:14:04.639Z,3.23
2022-12-06T11:16:43.173Z,3.24
2022-12-06T11:19:28.528Z,3.25
2022-12-06T11:22:06.182Z,3.28
2022-12-06T11:24:47.760Z,3.32
2022-12-06T11:27:26.166Z,3.36
2022-12-06T11:29:58.400Z,3.35
2022-12-06T11:32:32.907Z,3.37
2022-12-06T11:35:05.522Z,3.38
2022-12-06T11:37:44.161Z,3.38
2022-12-06T11:40:25.285Z,3.42
2022-12-06T11:43:00.634Z,3.44
2022-12-06T11:45:34.863Z,3.48
2022-12-06T11:48:16.857Z,3.52
2022-12-06T11:50:50.594Z,3.56
2022-12-06T11:53:31.074Z,3.59
2022-12-06T11:56:11.607Z,3.62
2022-12-06T11:58:53.226Z,3.64
2022-12-06T12:01:41.393Z,3.64
2022-12-06T12:04:35.011Z,3.63
2022-12-06T12:07:13.956Z,3.67
2022-12-06T12:09:53.186Z,3.71
2022-12-06T12:12:50.184Z,3.75
2022-12-06T12:15:27.884Z,3.77
2022-12-06T12:18:02.004Z,3.81
2022-12-06T12:20:34.762Z,3.84
2022-12-06T12:23:10.923Z,3.81
2022-12-06T12:25:44.096Z,3.86
2022-12-06T12:28:29.302Z,3.89
2022-12-06T12:31:15.043Z,3.88
2022-12-06T12:33:47.645Z,3.85
2022-12-06T12:36:26.992Z,3.85
2022-12-06T12:39:01.961Z,3.88
2022-12-06T12:41:40.480Z,3.89
2022-12-06T12:44:37.747Z,3.90
2022-12-06T12:47:20.321Z,3.88
2022-12-06T12:50:05.901Z,3.88
2022-12-06T12:52:42.471Z,3.88
2022-12-06T12:55:24.583Z,3.88
2022-12-06T12:57:59.308Z,3.88
2022-12-06T13:00:36.715Z,3.87
2022-12-06T13:03:42.787Z,3.88
2022-12-06T13:06:17.831Z,3.87
2022-12-06T13:08:50.691Z,3.89
2022-12-06T13:11:25.923Z,3.91
2022-12-06T13:14:00.623Z,3.94
2022-12-06T13:16:37.983Z,3.97
2022-12-06T13:19:18.962Z,3.99
2022-12-06T13:21:52.740Z,4.01
2022-12-06T13:24:30.381Z,4.01
2022-12-06T13:27:05.152Z,3.99
2022-12-06T13:29:42.103Z,3.99
2022-12-06T13:32:21.274Z,3.98
2022-12-06T13:34:56.491Z,3.99
2022-12-06T13:37:43.234Z,4.00
2022-12-06T13:40:45.273Z,4.02
2022-12-06T13:43:58.073Z,4.02
2022-12-06T13:46:37.657Z,4.04
2022-12-06T13:49:27.433Z,4.04
2022-12-06T13:52:00.044Z,4.04
2022-12-06T13:54:36.204Z,4.05
2022-12-06T13:57:26.384Z,4.04
2022-12-06T14:00:01.491Z,4.03
2022-12-06T14:02:47.933Z,4.04
2022-12-06T14:08:35.182Z,4.08
2022-12-06T14:11:26.126Z,4.07
2022-12-06T14:14:09.286Z,4.06
2022-12-06T14:16:45.009Z,4.08
2022-12-06T14:19:21.233Z,4.07
2022-12-06T14:21:58.314Z,4.08
2022-12-06T14:24:33.172Z,4.03
2022-12-06T14:27:13.996Z,3.97
2022-12-06T14:30:00.835Z,3.96
2022-12-06T14:32:40.877Z,3.96
2022-12-06T14:35:16.766Z,3.93
2022-12-06T14:37:55.572Z,3.93
2022-12-06T14:40:52.888Z,3.92
2022-12-06T14:43:28.302Z,3.91
2022-12-06T14:46:02.020Z,3.89
2022-12-06T14:48:51.188Z,3.83
2022-12-06T14:51:26.153Z,3.81
2022-12-06T14:54:18.300Z,3.77
2022-12-06T14:56:55.745Z,3.73
2022-12-06T15:02:30.294Z,3.67
2022-12-06T15:05:02.773Z,3.67
2022-12-06T15:07:50.683Z,3.67
2022-12-06T15:10:30.280Z,3.68
2022-12-06T15:13:16.792Z,3.63
2022-12-06T15:15:50.740Z,3.60
2022-12-06T15:18:28.363Z,3.58
2022-12-06T15:21:00.504Z,3.57
2022-12-06T15:23:36.664Z,3.54
2022-12-06T15:26:13.322Z,3.54
2022-12-06T15:28:45.789Z,3.52
2022-12-06T15:31:21.642Z,3.48
2022-12-06T15:33:54.533Z,3.46
2022-12-06T15:36:29.964Z,3.47
2022-12-06T15:39:06.713Z,3.46
2022-12-06T15:41:43.598Z,3.47
2022-12-06T15:44:21.296Z,3.48
2022-12-06T15:46:54.150Z,3.43
2022-12-06T15:49:27.326Z,3.39
2022-12-06T15:51:59.685Z,3.41
2022-12-06T15:54:32.099Z,3.40
2022-12-06T15:57:05.269Z,3.39
2022-12-06T15:59:41.377Z,3.34
2022-12-06T16:02:22.240Z,3.30
2022-12-06T16:04:54.731Z,3.26
2022-12-06T16:07:27.692Z,3.21
2022-12-06T16:10:00.186Z,3.19
2022-12-06T16:12:52.900Z,3.16
2022-12-06T16:15:25.852Z,3.14
2022-12-06T16:17:58.445Z,3.11
2022-12-06T16:20:34.352Z,3.05
2022-12-06T16:23:49.508Z,3.06
2022-12-06T16:26:21.972Z,3.03
2022-12-06T16:28:54.780Z,3.02
2022-12-06T16:31:29.535Z,3.00
2022-12-06T16:34:01.801Z,2.98
2022-12-06T16:36:35.759Z,2.99
2022-12-06T16:39:10.335Z,3.00
2022-12-06T16:41:43.522Z,3.01
2022-12-06T16:44:15.634Z,3.02
2022-12-06T16:46:49.550Z,3.01
2022-12-06T16:52:16.959Z,3.00
2022-12-06T16:54:49.184Z,2.99
2022-12-06T16:57:22.343Z,3.02
2022-12-06T16:59:57.950Z,3.04
2022-12-06T17:02:32.562Z,3.06
2022-12-06T17:05:07.258Z,3.05
2022-12-06T17:07:42.424Z,3.06
2022-12-06T17:10:16.194Z,3.02
2022-12-06T17:12:49.982Z,3.02
2022-12-06T17:15:23.815Z,3.01
2022-12-06T17:17:54.041Z,3.02
2022-12-06T17:20:29.067Z,2.95
2022-12-06T17:23:03.458Z,2.95
2022-12-06T17:25:35.855Z,2.88
2022-12-06T17:28:12.627Z,2.88
2022-12-06T17:30:50.870Z,2.88
2022-12-06T17:33:23.341Z,2.89
2022-12-06T17:35:55.830Z,2.83
2022-12-06T17:38:32.567Z,2.83
2022-12-06T17:41:25.703Z,2.79
2022-12-06T17:44:11.686Z,2.77
2022-12-06T17:46:45.515Z,2.79
2022-12-06T17:49:21.374Z,2.80
2022-12-06T17:54:45.563Z,2.78
2022-12-06T17:57:19.581Z,2.78
2022-12-06T17:59:52.952Z,2.78
2022-12-06T18:02:27.588Z,2.77
2022-12-06T18:05:00.888Z,2.75
2022-12-06T18:07:34.079Z,2.78
2022-12-06T18:10:08.208Z,2.75
2022-12-06T18:12:43.265Z,2.73
2022-12-06T18:15:29.867Z,2.71
2022-12-06T18:18:06.304Z,2.69
2022-12-06T18:20:40.039Z,2.69
2022-12-06T18:23:16.365Z,2.67
2022-12-06T18:25:49.354Z,2.65
2022-12-06T18:28:21.543Z,2.61
2022-12-06T18:30:53.854Z,2.60
2022-12-06T18:33:29.643Z,2.63
2022-12-06T18:36:05.802Z,2.61
2022-12-06T18:38:38.266Z,2.63
2022-12-06T18:41:12.483Z,2.63
2022-12-06T18:43:44.662Z,2.55
2022-12-06T18:46:20.248Z,2.58
2022-12-06T18:48:54.503Z,2.58
2022-12-06T18:51:29.054Z,2.58
2022-12-06T18:54:02.704Z,2.55
2022-12-06T18:56:36.523Z,2.56
2022-12-06T18:59:08.972Z,2.55
2022-12-06T19:01:42.781Z,2.51
2022-12-06T19:04:19.004Z,2.54
2022-12-06T19:06:52.063Z,2.53
2022-12-06T19:09:26.056Z,2.52
2022-12-06T19:11:58.086Z,2.46
2022-12-06T19:14:30.703Z,2.43
2022-12-06T19:17:03.100Z,2.41
2022-12-06T19:19:35.513Z,2.41
2022-12-06T19:22:08.123Z,2.43
2022-12-06T19:24:40.426Z,2.42
2022-12-06T19:27:12.923Z,2.37
2022-12-06T19:29:45.233Z,2.29
2022-12-06T19:32:17.273Z,2.26
2022-12-06T19:34:50.563Z,2.19
2022-12-06T19:37:22.654Z,2.17
2022-12-06T19:39:55.307Z,2.18
2022-12-06T19:42:45.448Z,2.15
2022-12-06T19:45:18.073Z,2.11
2022-12-06T19:47:50.332Z,2.07
2022-12-06T19:50:22.631Z,2.07
2022-12-06T19:52:58.084Z,2.04
2022-12-06T19:55:31.052Z,2.04
2022-12-06T19:58:04.393Z,2.05
2022-12-06T20:00:42.884Z,2.04
2022-12-06T20:03:18.763Z,2.03
2022-12-06T20:06:04.064Z,2.04
2022-12-06T20:08:39.226Z,2.07
2022-12-06T20:11:36.262Z,2.08
2022-12-06T20:14:10.343Z,2.02
2022-12-06T20:16:42.790Z,1.98
2022-12-06T20:19:37.951Z,1.95
2022-12-06T20:22:12.482Z,1.92
2022-12-06T20:24:45.954Z,1.90
2022-12-06T20:27:18.242Z,1.91
2022-12-06T20:29:50.542Z,1.91
2022-12-06T20:32:26.722Z,1.89
2022-12-06T20:34:59.309Z,1.87
2022-12-06T20:37:31.660Z,1.84
2022-12-06T20:40:04.210Z,1.83
2022-12-06T20:42:36.900Z,1.81
2022-12-06T20:45:10.412Z,1.81
2022-12-06T20:47:43.774Z,1.80
2022-12-06T20:50:16.652Z,1.76
2022-12-06T20:52:49.123Z,1.75
2022-12-06T20:55:21.446Z,1.74
2022-12-06T20:57:53.699Z,1.74
2022-12-06T21:00:27.479Z,1.74
2022-12-06T21:02:58.114Z,1.74
2022-12-06T21:05:30.524Z,1.64
2022-12-06T21:08:10.231Z,1.67
2022-12-06T21:11:13.912Z,1.65
2022-12-06T21:13:37.434Z,1.64
2022-12-06T21:16:14.461Z,1.62
2022-12-06T21:18:47.913Z,1.60
2022-12-06T21:21:26.814Z,1.60
2022-12-06T21:24:01.933Z,1.59
2022-12-06T21:26:34.453Z,1.60
2022-12-06T21:29:07.002Z,1.58
2022-12-06T21:31:41.342Z,1.58
2022-12-06T21:34:15.742Z,1.56
2022-12-06T21:36:50.600Z,1.56
2022-12-06T21:39:25.745Z,1.52
2022-12-06T21:41:58.474Z,1.50
2022-12-06T21:44:30.452Z,1.52
2022-12-06T21:47:02.409Z,1.52
2022-12-06T21:49:34.574Z,1.50
2022-12-06T21:52:09.410Z,1.50
2022-12-06T21:54:42.393Z,1.50
2022-12-06T21:57:14.422Z,1.52
2022-12-06T21:59:48.953Z,1.50
2022-12-06T22:02:21.222Z,1.52
2022-12-06T22:04:53.612Z,1.55
2022-12-06T22:07:28.223Z,1.55
2022-12-06T22:10:00.936Z,1.51
2022-12-06T22:12:33.462Z,1.49
2022-12-06T22:15:06.973Z,1.49
2022-12-06T22:17:41.983Z,1.50
2022-12-06T22:20:14.402Z,1.51
2022-12-06T22:22:46.843Z,1.49
2022-12-06T22:25:21.702Z,1.50
2022-12-06T22:27:55.426Z,1.43
2022-12-06T22:30:26.010Z,1.43
2022-12-06T22:32:58.546Z,1.36
2022-12-06T22:35:30.704Z,1.34
2022-12-06T22:38:02.873Z,1.36
2022-12-06T22:40:36.692Z,1.36
2022-12-06T22:43:09.784Z,1.35
2022-12-06T22:45:41.804Z,1.27
2022-12-06T22:48:14.122Z,1.30
2022-12-06T22:50:46.194Z,1.30
2022-12-06T22:53:18.404Z,1.26
2022-12-06T22:55:50.773Z,1.23
2022-12-06T22:58:23.192Z,1.20
2022-12-06T23:00:55.189Z,1.18
2022-12-06T23:03:27.993Z,1.16
2022-12-06T23:06:03.615Z,1.16
2022-12-06T23:08:44.438Z,1.14
2022-12-06T23:11:19.145Z,1.12
2022-12-06T23:13:51.282Z,1.11
2022-12-06T23:16:25.731Z,1.11
2022-12-06T23:18:58.782Z,1.08
2022-12-06T23:21:32.860Z,1.08
2022-12-06T23:24:03.821Z,1.07
2022-12-06T23:26:37.713Z,1.01
2022-12-06T23:29:10.143Z,0.99
2022-12-06T23:31:46.844Z,0.99
2022-12-06T23:34:22.547Z,1.01
2022-12-06T23:36:55.428Z,0.99
2022-12-06T23:39:27.465Z,0.97
2022-12-06T23:41:59.587Z,0.96
2022-12-06T23:44:31.727Z,0.94
2022-12-06T23:47:04.202Z,0.93
2022-12-06T23:49:38.678Z,0.95
2022-12-06T23:52:11.023Z,0.92
2022-12-06T23:54:44.663Z,0.91
2022-12-06T23:57:15.199Z,0.93
2022-12-06T23:59:47.082Z,0.87
